createdAt,value
2019-02-15T00:01:35.872Z,88.77
2019-02-15T00:04:05.563Z,88.72
2019-02-15T00:06:35.256Z,88.76
2019-02-15T00:09:05.972Z,88.86
2019-02-15T00:11:35.678Z,88.16
2019-02-15T00:14:05.377Z,88.02
2019-02-15T00:16:35.063Z,88.44
2019-02-15T00:19:06.426Z,87.89
2019-02-15T00:21:36.092Z,87.92
2019-02-15T00:24:05.785Z,88.06
2019-02-15T00:26:35.534Z,88.14
2019-02-15T00:29:05.233Z,88.09
2019-02-15T00:31:35.004Z,88.26
2019-02-15T00:34:08.508Z,88.40
2019-02-15T00:36:38.265Z,88.15
2019-02-15T00:39:08.694Z,88.29
2019-02-15T00:41:38.485Z,88.37
2019-02-15T00:44:08.200Z,88.42
2019-02-15T00:46:45.340Z,88.21
2019-02-15T00:49:16.678Z,88.10
2019-02-15T00:51:48.036Z,87.92
2019-02-15T00:54:30.306Z,88.00
2019-02-15T00:57:18.324Z,88.34
2019-02-15T00:59:49.628Z,87.99
2019-02-15T01:02:33.017Z,87.88
2019-02-15T01:05:13.227Z,88.09
2019-02-15T01:07:50.294Z,88.45
2019-02-15T01:10:30.716Z,88.37
2019-02-15T01:13:02.037Z,88.45
2019-02-15T01:15:31.747Z,88.45
2019-02-15T01:18:01.418Z,88.62
2019-02-15T01:20:31.120Z,88.70
2019-02-15T01:23:01.009Z,88.59
2019-02-15T01:25:32.372Z,88.57
2019-02-15T01:28:06.359Z,88.41
2019-02-15T01:30:54.193Z,88.49
2019-02-15T01:33:38.048Z,88.56
2019-02-15T01:36:14.916Z,88.66
2019-02-15T01:38:51.990Z,88.81
2019-02-15T01:41:29.055Z,88.85
2019-02-15T01:44:08.050Z,88.75
2019-02-15T01:46:39.386Z,88.69
2019-02-15T01:49:09.082Z,88.53
2019-02-15T01:51:38.957Z,88.54
2019-02-15T01:54:08.710Z,88.11
2019-02-15T01:56:44.392Z,88.50
2019-02-15T01:59:14.333Z,88.10
2019-02-15T02:01:44.037Z,87.93
2019-02-15T02:04:13.664Z,87.83
2019-02-15T02:06:43.384Z,88.05
2019-02-15T02:09:13.253Z,88.22
2019-02-15T02:11:43.002Z,88.45
2019-02-15T02:14:12.645Z,88.43
2019-02-15T02:16:42.623Z,88.45
2019-02-15T02:19:12.450Z,88.53
2019-02-15T02:21:43.031Z,88.75
2019-02-15T02:24:12.883Z,88.34
2019-02-15T02:26:42.604Z,88.36
2019-02-15T02:29:12.372Z,88.62
2019-02-15T02:31:42.095Z,88.62
2019-02-15T02:34:11.816Z,88.81
2019-02-15T02:36:49.827Z,88.90
2019-02-15T02:39:19.664Z,88.87
2019-02-15T02:41:49.429Z,88.75
2019-02-15T02:44:19.203Z,88.99
2019-02-15T02:46:48.959Z,89.17
2019-02-15T02:49:18.680Z,89.11
2019-02-15T02:51:48.381Z,88.98
2019-02-15T02:54:18.072Z,88.88
2019-02-15T02:56:47.769Z,89.04
2019-02-15T02:59:17.488Z,88.56
2019-02-15T03:01:47.167Z,88.60
2019-02-15T03:04:16.960Z,88.56
2019-02-15T03:06:46.800Z,88.62
2019-02-15T03:09:16.519Z,88.61
2019-02-15T03:11:46.654Z,88.57
2019-02-15T03:14:16.641Z,88.46
2019-02-15T03:16:46.532Z,88.48
2019-02-15T03:19:16.473Z,88.52
2019-02-15T03:21:46.552Z,88.44
2019-02-15T03:24:16.430Z,88.02
2019-02-15T03:26:47.082Z,88.11
2019-02-15T03:29:16.794Z,88.22
2019-02-15T03:31:46.475Z,88.21
2019-02-15T03:34:16.188Z,88.31
2019-02-15T03:36:53.661Z,88.32
2019-02-15T03:39:41.104Z,88.55
2019-02-15T03:42:12.505Z,88.58
2019-02-15T03:44:42.234Z,88.73
2019-02-15T03:47:13.573Z,88.65
2019-02-15T03:49:43.275Z,88.63
2019-02-15T03:52:12.986Z,88.58
2019-02-15T03:54:42.716Z,88.71
2019-02-15T03:57:12.393Z,88.65
2019-02-15T03:59:42.226Z,88.75
2019-02-15T04:02:11.936Z,88.83
2019-02-15T04:04:41.657Z,88.83
2019-02-15T04:07:11.334Z,88.97
2019-02-15T04:09:41.027Z,88.95
2019-02-15T04:12:10.871Z,88.95
2019-02-15T04:14:40.676Z,89.00
2019-02-15T04:17:10.339Z,88.88
2019-02-15T04:19:40.085Z,88.98
2019-02-15T04:22:09.770Z,89.03
2019-02-15T04:24:39.463Z,89.10
2019-02-15T04:27:09.186Z,89.23
2019-02-15T04:29:38.888Z,89.19
2019-02-15T04:32:08.608Z,89.21
2019-02-15T04:34:38.288Z,89.30
2019-02-15T04:37:07.997Z,89.26
2019-02-15T04:39:37.693Z,89.01
2019-02-15T04:42:07.415Z,88.98
2019-02-15T04:44:42.873Z,89.03
2019-02-15T04:47:08.509Z,89.07
2019-02-15T04:49:38.248Z,89.01
2019-02-15T04:52:07.971Z,88.99
2019-02-15T04:54:37.641Z,89.12
2019-02-15T04:57:07.393Z,88.81
2019-02-15T04:59:37.060Z,88.71
2019-02-15T05:02:06.795Z,88.86
2019-02-15T05:04:36.499Z,89.01
2019-02-15T05:07:06.238Z,89.08
2019-02-15T05:09:35.926Z,88.81
2019-02-15T05:12:05.644Z,89.13
2019-02-15T05:14:35.327Z,89.12
2019-02-15T05:17:05.026Z,89.11
2019-02-15T05:19:34.802Z,89.31
2019-02-15T05:22:04.498Z,89.50
2019-02-15T05:24:34.192Z,89.52
2019-02-15T05:27:03.947Z,89.53
2019-02-15T05:29:33.643Z,89.49
2019-02-15T05:32:03.344Z,89.38
2019-02-15T05:34:33.007Z,89.17
2019-02-15T05:37:03.802Z,88.95
2019-02-15T05:39:33.494Z,89.19
2019-02-15T05:42:03.214Z,89.25
2019-02-15T05:44:32.920Z,88.90
2019-02-15T05:47:02.628Z,88.63
2019-02-15T05:49:32.323Z,88.49
2019-02-15T05:52:02.169Z,88.42
2019-02-15T05:54:31.842Z,88.72
2019-02-15T05:57:01.573Z,88.97
2019-02-15T05:59:31.264Z,89.20
2019-02-15T06:02:04.061Z,89.33
2019-02-15T06:04:33.722Z,89.39
2019-02-15T06:07:03.465Z,89.38
2019-02-15T06:09:33.162Z,89.47
2019-02-15T06:12:02.944Z,89.56
2019-02-15T06:14:32.660Z,89.70
2019-02-15T06:17:02.423Z,89.17
2019-02-15T06:19:32.597Z,89.10
2019-02-15T06:22:02.484Z,88.88
2019-02-15T06:24:32.202Z,88.86
2019-02-15T06:27:01.914Z,89.01
2019-02-15T06:29:32.610Z,89.07
2019-02-15T06:32:02.306Z,88.79
2019-02-15T06:34:40.155Z,88.99
2019-02-15T06:37:11.399Z,88.94
2019-02-15T06:39:41.126Z,88.90
2019-02-15T06:42:11.896Z,88.80
2019-02-15T06:44:41.620Z,88.63
2019-02-15T06:47:11.332Z,88.49
2019-02-15T06:49:41.024Z,88.49
2019-02-15T06:52:10.748Z,88.66
2019-02-15T06:54:40.527Z,88.83
2019-02-15T06:57:10.232Z,88.44
2019-02-15T06:59:56.660Z,88.46
2019-02-15T07:02:28.014Z,88.58
2019-02-15T07:05:02.030Z,88.53
2019-02-15T07:07:31.745Z,88.60
2019-02-15T07:10:01.437Z,88.71
2019-02-15T07:12:31.124Z,88.71
2019-02-15T07:15:00.880Z,88.67
2019-02-15T07:17:30.579Z,88.49
2019-02-15T07:20:00.377Z,88.23
2019-02-15T07:22:30.275Z,88.26
2019-02-15T07:24:59.997Z,88.32
2019-02-15T07:27:29.681Z,88.41
2019-02-15T07:29:59.389Z,88.13
2019-02-15T07:32:29.088Z,88.18
2019-02-15T07:34:59.278Z,87.84
2019-02-15T07:37:29.001Z,87.41
2019-02-15T07:39:58.692Z,87.03
2019-02-15T07:42:28.346Z,87.05
2019-02-15T07:44:58.052Z,86.40
2019-02-15T07:47:27.776Z,85.93
2019-02-15T07:49:57.487Z,85.54
2019-02-15T07:52:27.144Z,85.14
2019-02-15T07:54:56.861Z,85.02
2019-02-15T07:57:26.603Z,84.90
2019-02-15T08:00:00.483Z,84.49
2019-02-15T08:02:31.038Z,84.18
2019-02-15T08:05:00.748Z,83.93
2019-02-15T08:07:30.428Z,83.72
2019-02-15T08:10:00.307Z,83.23
2019-02-15T08:12:29.970Z,83.03
2019-02-15T08:14:59.690Z,82.50
2019-02-15T08:17:29.385Z,82.40
2019-02-15T08:20:06.704Z,81.90
2019-02-15T08:22:39.325Z,81.66
2019-02-15T08:25:10.797Z,80.96
2019-02-15T08:27:42.155Z,80.42
2019-02-15T08:30:12.903Z,79.34
2019-02-15T08:32:44.113Z,79.50
2019-02-15T08:35:13.831Z,79.42
2019-02-15T08:37:43.494Z,79.27
2019-02-15T08:40:13.213Z,77.60
2019-02-15T08:42:42.928Z,77.34
2019-02-15T08:45:14.187Z,77.32
2019-02-15T08:47:43.859Z,76.56
2019-02-15T08:50:13.624Z,76.68
2019-02-15T08:52:43.360Z,75.96
2019-02-15T08:55:13.096Z,74.84
2019-02-15T08:57:42.821Z,74.47
2019-02-15T09:00:13.529Z,74.23
2019-02-15T09:02:43.227Z,74.04
2019-02-15T09:05:13.388Z,73.87
2019-02-15T09:07:43.111Z,73.77
2019-02-15T09:10:13.953Z,73.26
2019-02-15T09:12:43.668Z,72.79
2019-02-15T09:15:18.617Z,71.77
2019-02-15T09:17:48.541Z,71.35
2019-02-15T09:20:18.249Z,70.97
2019-02-15T09:22:49.991Z,71.40
2019-02-15T09:25:19.757Z,71.08
2019-02-15T09:27:51.252Z,70.93
2019-02-15T09:30:20.925Z,70.69
2019-02-15T09:32:50.613Z,69.74
2019-02-15T09:35:20.338Z,68.81
2019-02-15T09:37:50.019Z,69.49
2019-02-15T09:40:19.763Z,68.91
2019-02-15T09:42:49.432Z,68.44
2019-02-15T09:45:19.349Z,68.12
2019-02-15T09:47:49.065Z,67.45
2019-02-15T09:50:18.731Z,67.84
2019-02-15T09:52:48.390Z,68.21
2019-02-15T09:55:18.138Z,66.89
2019-02-15T09:57:48.079Z,66.64
2019-02-15T10:00:17.722Z,66.28
2019-02-15T10:02:47.429Z,66.11
2019-02-15T10:05:17.152Z,65.68
2019-02-15T10:07:46.873Z,65.77
2019-02-15T10:10:16.560Z,64.87
2019-02-15T10:12:46.338Z,65.76
2019-02-15T10:15:16.024Z,63.17
2019-02-15T10:17:45.842Z,63.00
2019-02-15T10:20:15.540Z,61.86
2019-02-15T10:22:45.315Z,61.39
2019-02-15T10:25:15.021Z,60.68
2019-02-15T10:27:44.726Z,61.10
2019-02-15T10:30:14.414Z,61.83
2019-02-15T10:32:44.074Z,62.11
2019-02-15T10:35:14.145Z,61.25
2019-02-15T10:37:43.839Z,60.99
2019-02-15T10:40:13.515Z,60.45
2019-02-15T10:42:43.164Z,59.56
2019-02-15T10:45:18.721Z,58.76
2019-02-15T10:47:48.364Z,58.94
2019-02-15T10:50:18.069Z,57.56
2019-02-15T10:52:48.039Z,58.09
2019-02-15T10:55:17.799Z,56.86
2019-02-15T10:57:47.524Z,57.55
2019-02-15T11:00:19.515Z,57.42
2019-02-15T11:02:49.193Z,57.58
2019-02-15T11:05:19.194Z,58.55
2019-02-15T11:07:48.900Z,58.68
2019-02-15T11:10:18.611Z,57.26
2019-02-15T11:12:48.315Z,57.87
2019-02-15T11:15:18.309Z,57.84
2019-02-15T11:17:48.142Z,57.94
2019-02-15T11:20:18.577Z,57.04
2019-02-15T11:22:48.306Z,56.87
2019-02-15T11:25:18.036Z,56.71
2019-02-15T11:27:47.756Z,55.99
2019-02-15T11:30:17.862Z,55.36
2019-02-15T11:32:47.544Z,56.28
2019-02-15T11:35:17.263Z,54.58
2019-02-15T11:37:48.103Z,55.90
2019-02-15T11:40:17.816Z,55.63
2019-02-15T11:42:51.322Z,55.25
2019-02-15T11:45:23.052Z,54.13
2019-02-15T11:47:52.735Z,52.71
2019-02-15T11:50:22.467Z,53.34
2019-02-15T11:52:52.224Z,54.18
2019-02-15T11:55:21.971Z,52.18
2019-02-15T11:57:51.696Z,50.71
2019-02-15T12:00:25.677Z,50.02
2019-02-15T12:03:03.983Z,49.47
2019-02-15T12:05:33.878Z,49.50
2019-02-15T12:08:03.574Z,49.63
2019-02-15T12:10:33.346Z,50.47
2019-02-15T12:13:03.054Z,47.85
2019-02-15T12:15:32.746Z,49.00
2019-02-15T12:18:07.950Z,45.74
2019-02-15T12:20:37.669Z,46.31
2019-02-15T12:23:07.401Z,46.00
2019-02-15T12:25:37.092Z,44.58
2019-02-15T12:28:06.826Z,45.20
2019-02-15T12:30:36.533Z,46.07
2019-02-15T12:33:06.210Z,44.17
2019-02-15T12:35:35.887Z,44.72
2019-02-15T12:38:06.696Z,44.04
2019-02-15T12:40:36.404Z,44.18
2019-02-15T12:43:06.124Z,44.28
2019-02-15T12:45:35.878Z,44.51
2019-02-15T12:48:05.959Z,42.23
2019-02-15T12:50:35.704Z,43.91
2019-02-15T12:53:07.143Z,43.61
2019-02-15T12:55:36.863Z,43.58
2019-02-15T12:58:06.554Z,43.57
2019-02-15T13:00:38.202Z,43.12
2019-02-15T13:03:09.246Z,43.21
2019-02-15T13:05:45.891Z,43.17
2019-02-15T13:08:16.084Z,44.28
2019-02-15T13:10:45.944Z,43.17
2019-02-15T13:13:15.631Z,43.12
2019-02-15T13:15:45.330Z,43.37
2019-02-15T13:18:14.999Z,42.79
2019-02-15T13:20:44.687Z,41.27
2019-02-15T13:23:14.393Z,39.91
2019-02-15T13:25:44.141Z,41.69
2019-02-15T13:28:13.896Z,40.24
2019-02-15T13:30:43.650Z,40.28
2019-02-15T13:33:13.375Z,39.72
2019-02-15T13:35:43.047Z,39.22
2019-02-15T13:38:12.724Z,38.14
2019-02-15T13:40:42.460Z,39.65
2019-02-15T13:43:12.142Z,40.81
2019-02-15T13:45:41.838Z,42.09
2019-02-15T13:48:11.546Z,41.46
2019-02-15T13:50:41.242Z,42.36
2019-02-15T13:53:10.943Z,44.29
2019-02-15T13:55:40.632Z,43.14
2019-02-15T13:58:10.321Z,42.19
2019-02-15T14:00:40.048Z,42.10
2019-02-15T14:03:09.737Z,42.07
2019-02-15T14:05:39.512Z,40.37
2019-02-15T14:08:09.191Z,38.54
2019-02-15T14:10:38.930Z,36.86
2019-02-15T14:13:08.591Z,37.54
2019-02-15T14:15:38.301Z,38.45
2019-02-15T14:18:07.997Z,38.96
2019-02-15T14:20:37.697Z,39.31
2019-02-15T14:23:07.368Z,40.75
2019-02-15T14:25:37.060Z,42.38
2019-02-15T14:28:06.739Z,40.82
2019-02-15T14:30:46.931Z,40.30
2019-02-15T14:33:16.884Z,40.92
2019-02-15T14:35:46.570Z,42.50
2019-02-15T14:38:16.270Z,41.12
2019-02-15T14:40:45.972Z,42.51
2019-02-15T14:43:15.676Z,42.73
2019-02-15T14:45:45.393Z,40.44
2019-02-15T14:48:15.035Z,41.86
2019-02-15T14:50:48.076Z,42.41
2019-02-15T14:53:17.886Z,42.57
2019-02-15T14:55:47.597Z,43.13
2019-02-15T14:58:17.306Z,44.32
2019-02-15T15:00:48.055Z,45.33
2019-02-15T15:03:17.838Z,44.37
2019-02-15T15:05:48.311Z,43.60
2019-02-15T15:08:18.010Z,43.95
2019-02-15T15:10:47.720Z,43.17
2019-02-15T15:13:18.337Z,43.37
2019-02-15T15:15:48.032Z,43.49
2019-02-15T15:18:17.737Z,44.47
2019-02-15T15:20:47.571Z,44.52
2019-02-15T15:23:17.265Z,43.60
2019-02-15T15:25:46.969Z,43.75
2019-02-15T15:28:16.706Z,44.36
2019-02-15T15:30:46.483Z,45.25
2019-02-15T15:33:16.197Z,45.18
2019-02-15T15:35:45.966Z,45.08
2019-02-15T15:38:15.694Z,44.57
2019-02-15T15:40:45.422Z,44.52
2019-02-15T15:43:15.176Z,44.96
2019-02-15T15:45:44.830Z,46.19
2019-02-15T15:48:22.519Z,45.54
2019-02-15T15:50:45.980Z,46.20
2019-02-15T15:53:15.651Z,45.47
2019-02-15T15:55:45.363Z,45.37
2019-02-15T15:58:15.054Z,45.54
2019-02-15T16:00:44.780Z,45.76
2019-02-15T16:03:14.562Z,45.75
2019-02-15T16:05:45.316Z,45.21
2019-02-15T16:08:15.060Z,46.02
2019-02-15T16:10:45.358Z,46.48
2019-02-15T16:16:04.020Z,47.82
2019-02-15T16:18:35.162Z,49.87
2019-02-15T16:21:05.020Z,49.81
2019-02-15T16:23:34.722Z,50.56
2019-02-15T16:26:04.429Z,51.65
2019-02-15T16:28:34.156Z,52.66
2019-02-15T16:31:03.848Z,53.08
2019-02-15T16:33:33.559Z,54.13
2019-02-15T16:36:03.779Z,53.77
2019-02-15T16:38:33.461Z,53.91
2019-02-15T16:41:03.141Z,53.68
2019-02-15T16:43:32.836Z,54.45
2019-02-15T16:46:02.517Z,54.94
2019-02-15T16:48:41.720Z,55.65
2019-02-15T16:51:04.061Z,55.37
2019-02-15T16:53:33.783Z,54.43
2019-02-15T16:56:03.455Z,55.13
2019-02-15T16:58:33.151Z,55.37
2019-02-15T17:01:02.841Z,55.62
2019-02-15T17:03:32.517Z,54.93
2019-02-15T17:06:02.450Z,54.52
2019-02-15T17:08:32.233Z,55.14
2019-02-15T17:11:01.927Z,56.73
2019-02-15T17:13:31.608Z,56.46
2019-02-15T17:16:01.354Z,56.95
2019-02-15T17:18:31.064Z,56.78
2019-02-15T17:21:00.742Z,55.15
2019-02-15T17:23:30.519Z,55.50
2019-02-15T17:26:00.223Z,55.02
2019-02-15T17:28:29.918Z,56.76
2019-02-15T17:30:59.784Z,56.27
2019-02-15T17:33:29.468Z,56.68
2019-02-15T17:35:59.125Z,55.83
2019-02-15T17:38:28.778Z,56.20
2019-02-15T17:40:59.870Z,56.43
2019-02-15T17:43:29.721Z,56.84
2019-02-15T17:45:59.403Z,57.21
2019-02-15T17:48:29.116Z,56.44
2019-02-15T17:50:58.820Z,54.73
2019-02-15T17:53:29.367Z,54.81
2019-02-15T17:55:58.975Z,55.13
2019-02-15T17:58:28.614Z,55.79
2019-02-15T18:00:58.217Z,56.98
2019-02-15T18:03:27.891Z,58.06
2019-02-15T18:05:57.524Z,58.14
2019-02-15T18:08:27.123Z,58.45
2019-02-15T18:10:58.635Z,58.40
2019-02-15T18:13:28.377Z,58.33
2019-02-15T18:15:58.079Z,58.39
2019-02-15T18:18:27.696Z,58.90
2019-02-15T18:20:57.387Z,58.84
2019-02-15T18:23:27.152Z,59.24
2019-02-15T18:25:56.825Z,59.07
2019-02-15T18:28:26.622Z,58.49
2019-02-15T18:30:56.321Z,58.62
2019-02-15T18:33:25.996Z,59.21
2019-02-15T18:35:55.713Z,58.95
2019-02-15T18:38:25.401Z,58.88
2019-02-15T18:40:55.099Z,58.84
2019-02-15T18:43:24.769Z,58.43
2019-02-15T18:45:54.461Z,59.43
2019-02-15T18:48:24.762Z,58.61
2019-02-15T18:50:54.874Z,57.57
2019-02-15T18:53:24.573Z,57.72
2019-02-15T18:55:54.275Z,57.31
2019-02-15T18:58:23.927Z,56.51
2019-02-15T19:00:56.204Z,55.22
2019-02-15T19:03:26.175Z,55.16
2019-02-15T19:05:55.870Z,55.90
2019-02-15T19:08:25.559Z,56.81
2019-02-15T19:10:55.237Z,56.32
2019-02-15T19:13:24.945Z,56.24
2019-02-15T19:15:54.652Z,55.21
2019-02-15T19:18:24.341Z,55.14
2019-02-15T19:20:54.217Z,54.89
2019-02-15T19:23:23.906Z,55.55
2019-02-15T19:25:55.510Z,55.72
2019-02-15T19:28:25.224Z,55.82
2019-02-15T19:30:55.065Z,55.71
2019-02-15T19:33:24.784Z,55.69
2019-02-15T19:35:54.492Z,56.32
2019-02-15T19:38:24.751Z,56.68
2019-02-15T19:40:54.409Z,57.21
2019-02-15T19:43:24.089Z,56.87
2019-02-15T19:45:53.744Z,57.23
2019-02-15T19:48:24.797Z,57.09
2019-02-15T19:50:54.495Z,57.74
2019-02-15T19:53:24.172Z,58.40
2019-02-15T19:55:54.860Z,58.65
2019-02-15T19:58:24.510Z,58.42
2019-02-15T20:00:54.255Z,59.61
2019-02-15T20:03:23.992Z,60.38
2019-02-15T20:05:54.337Z,60.72
2019-02-15T20:08:24.009Z,60.78
2019-02-15T20:10:53.706Z,60.59
2019-02-15T20:13:23.383Z,60.55
2019-02-15T20:15:58.043Z,60.49
2019-02-15T20:18:27.737Z,60.65
2019-02-15T20:20:57.407Z,61.10
2019-02-15T20:23:27.160Z,62.30
2019-02-15T20:25:56.833Z,60.95
2019-02-15T20:28:26.569Z,58.67
2019-02-15T20:30:56.232Z,56.65
2019-02-15T20:33:25.988Z,55.70
2019-02-15T20:35:55.665Z,56.11
2019-02-15T20:38:25.373Z,56.91
2019-02-15T20:40:55.038Z,57.47
2019-02-15T20:43:24.750Z,56.76
2019-02-15T20:45:54.409Z,55.50
2019-02-15T20:48:24.148Z,55.80
2019-02-15T20:50:53.827Z,55.59
2019-02-15T20:53:23.525Z,55.73
2019-02-15T20:55:53.221Z,55.17
2019-02-15T20:58:22.906Z,54.48
2019-02-15T21:00:52.587Z,55.10
2019-02-15T21:03:22.386Z,55.24
2019-02-15T21:05:52.080Z,54.38
2019-02-15T21:08:21.783Z,55.17
2019-02-15T21:10:55.193Z,54.67
2019-02-15T21:13:22.857Z,55.15
2019-02-15T21:15:52.552Z,55.03
2019-02-15T21:18:22.246Z,54.70
2019-02-15T21:20:52.391Z,54.57
2019-02-15T21:23:22.192Z,54.27
2019-02-15T21:25:51.851Z,54.48
2019-02-15T21:28:21.503Z,55.69
2019-02-15T21:30:51.184Z,55.50
2019-02-15T21:33:20.869Z,56.75
2019-02-15T21:35:50.525Z,57.25
2019-02-15T21:38:20.208Z,58.40
2019-02-15T21:40:49.905Z,58.76
2019-02-15T21:43:19.650Z,59.47
2019-02-15T21:45:49.288Z,60.21
2019-02-15T21:48:19.001Z,60.79
2019-02-15T21:50:48.750Z,61.58
2019-02-15T21:53:18.486Z,61.79
2019-02-15T21:55:48.115Z,61.59
2019-02-15T21:58:18.022Z,62.27
2019-02-15T22:00:47.700Z,61.96
2019-02-15T22:03:17.401Z,60.88
2019-02-15T22:05:47.077Z,60.03
2019-02-15T22:08:16.793Z,60.04
2019-02-15T22:10:46.479Z,59.22
2019-02-15T22:13:17.699Z,59.66
2019-02-15T22:19:12.805Z,59.19
2019-02-15T22:21:42.551Z,59.09
2019-02-15T22:24:12.176Z,58.85
2019-02-15T22:26:41.957Z,59.71
2019-02-15T22:29:11.569Z,59.45
2019-02-15T22:31:41.256Z,59.37
2019-02-15T22:34:10.865Z,60.17
2019-02-15T22:36:40.480Z,60.45
2019-02-15T22:39:10.105Z,60.36
2019-02-15T22:41:39.725Z,60.17
2019-02-15T22:44:09.440Z,60.26
2019-02-15T22:46:39.043Z,60.47
2019-02-15T22:49:08.676Z,60.90
2019-02-15T22:51:38.281Z,60.59
2019-02-15T22:54:08.094Z,61.02
2019-02-15T22:56:37.709Z,61.58
2019-02-15T22:59:07.377Z,61.65
2019-02-15T23:01:37.155Z,62.93
2019-02-15T23:04:06.752Z,64.10
2019-02-15T23:06:36.391Z,64.62
2019-02-15T23:09:09.292Z,64.84
2019-02-15T23:11:38.909Z,65.28
2019-02-15T23:14:08.596Z,65.66
2019-02-15T23:16:38.250Z,66.01
2019-02-15T23:19:07.883Z,66.42
2019-02-15T23:21:37.495Z,66.69
2019-02-15T23:24:07.105Z,66.93
2019-02-15T23:26:36.727Z,67.24
2019-02-15T23:29:06.376Z,66.88
2019-02-15T23:31:36.010Z,67.00
2019-02-15T23:34:05.660Z,67.33
2019-02-15T23:36:35.342Z,67.32
2019-02-15T23:39:06.481Z,67.58
2019-02-15T23:41:36.172Z,67.79
2019-02-15T23:44:05.853Z,68.07
2019-02-15T23:46:35.576Z,68.31
2019-02-15T23:49:05.242Z,67.55
2019-02-15T23:51:34.988Z,67.92
2019-02-15T23:54:04.664Z,67.76
2019-02-15T23:56:34.358Z,68.33
2019-02-15T23:59:04.029Z,69.15
